Time;durP1;ratioP1;P1;durP2;ratioP2;P2;SDS_P1;SDS_P2;PMS_P1;PMS_P2;Temp;Humidity;BMP_temperature;BMP_pressure;BME280_temperature;BME280_humidity;BME280_pressure;Samples;Min_cycle;Max_cycle;Signal;HPM_P1;HPM_P2
2022/07/28 00:02:28;;;;;;;4.13;1.13;;;;;;;12.53;85.32;101043.06;7737997;23;20016;-88
2022/07/28 00:05:30;;;;;;;3.67;1.23;;;;;;;12.46;85.41;101041.88;7710782;23;20113;-88
2022/07/28 00:08:34;;;;;;;3.30;1.25;;;;;;;12.39;85.53;101048.50;7737039;23;20043;-88
2022/07/28 00:11:36;;;;;;;3.47;1.08;;;;;;;12.32;86.15;101036.94;7711149;23;20020;-88
2022/07/28 00:14:55;;;;;;;2.05;1.15;;;;;;;12.25;87.19;101045.22;7737868;23;20385;-88
2022/07/28 00:17:57;;;;;;;1.65;0.85;;;;;;;12.22;87.43;101055.00;7710975;23;20016;-88
2022/07/28 00:20:59;;;;;;;6.28;1.27;;;;;;;12.17;86.72;101051.94;7736468;23;20024;-88
2022/07/28 00:24:00;;;;;;;2.45;1.00;;;;;;;12.13;87.61;101048.75;7738320;23;20098;-88
2022/07/28 00:27:05;;;;;;;3.53;1.10;;;;;;;12.10;87.91;101041.22;7737442;23;20031;-88
2022/07/28 00:30:08;;;;;;;6.03;1.35;;;;;;;12.05;87.83;101044.16;7728199;23;20446;-89
2022/07/28 00:33:10;;;;;;;5.47;1.20;;;;;;;12.02;87.78;101048.75;7736950;23;20016;-88
2022/07/28 00:36:12;;;;;;;2.65;1.00;;;;;;;11.99;87.97;101044.63;7679468;23;20059;-88
2022/07/28 00:39:14;;;;;;;3.00;1.00;;;;;;;11.92;88.16;101043.44;7735421;23;20028;-88
2022/07/28 00:42:17;;;;;;;1.73;0.90;;;;;;;11.85;88.85;101045.66;7710136;23;20027;-88
2022/07/28 00:45:19;;;;;;;1.63;0.77;;;;;;;11.80;88.42;101049.50;7736996;23;20350;-89
2022/07/28 00:48:21;;;;;;;4.47;1.00;;;;;;;11.76;88.70;101042.94;7737734;23;20025;-88
2022/07/28 00:51:25;;;;;;;2.88;1.27;;;;;;;11.68;88.89;101047.88;7737448;23;20422;-88
2022/07/28 00:54:27;;;;;;;2.47;0.82;;;;;;;11.64;89.76;101049.84;7737804;23;20324;-89
2022/07/28 00:57:29;;;;;;;3.08;1.10;;;;;;;11.60;89.77;101046.69;7737413;23;20087;-88
2022/07/28 01:00:31;;;;;;;2.42;1.05;;;;;;;11.55;89.51;101048.81;7736456;23;20422;-88
2022/07/28 01:03:37;;;;;;;1.10;0.80;;;;;;;11.46;90.11;101052.06;7710430;23;20046;-88
2022/07/28 01:06:48;;;;;;;6.05;1.35;;;;;;;11.46;90.63;101052.06;7737211;23;20339;-88
2022/07/28 01:10:11;;;;;;;2.55;0.90;;;;;;;11.41;90.77;101047.22;7711545;23;20350;-88
2022/07/28 01:13:25;;;;;;;4.50;1.08;;;;;;;11.40;91.62;101058.53;7709782;23;20051;-88
2022/07/28 01:16:30;;;;;;;2.45;1.00;;;;;;;11.39;91.71;101056.88;7737282;23;20020;-88
2022/07/28 01:19:42;;;;;;;3.38;1.10;;;;;;;11.38;91.87;101049.22;7737315;23;20031;-88
2022/07/28 01:23:15;;;;;;;5.22;1.00;;;;;;;11.36;91.86;101054.50;7737930;23;20024;-88
2022/07/28 01:26:35;;;;;;;3.22;1.15;;;;;;;11.32;91.83;101049.66;7711148;23;20020;-88
2022/07/28 01:30:01;;;;;;;0.82;0.80;;;;;;;11.31;91.76;101054.03;7709997;23;20371;-88
2022/07/28 01:33:45;;;;;;;1.88;0.98;;;;;;;11.27;91.91;101051.75;7737408;23;20023;-88
2022/07/28 01:37:03;;;;;;;2.20;1.38;;;;;;;11.21;92.90;101047.88;7737439;23;20165;-88
2022/07/28 01:40:07;;;;;;;3.85;1.45;;;;;;;11.20;92.38;101047.06;7736099;23;20470;-88
2022/07/28 01:43:15;;;;;;;2.03;1.10;;;;;;;11.23;93.04;101045.16;7710684;23;20890;-88
2022/07/28 01:46:19;;;;;;;2.47;1.15;;;;;;;11.20;92.34;101046.19;7737844;23;20031;-89
2022/07/28 01:49:22;;;;;;;3.25;1.30;;;;;;;11.22;93.04;101049.50;7736628;23;20327;-88
2022/07/28 01:52:27;;;;;;;2.85;1.25;;;;;;;11.18;93.77;101048.09;7739229;23;20469;-88
2022/07/28 01:55:30;;;;;;;5.10;1.30;;;;;;;11.19;93.55;101036.78;7739034;23;20375;-88
2022/07/28 01:58:33;;;;;;;5.70;1.25;;;;;;;11.21;93.75;101033.13;7737702;23;20692;-88
2022/07/28 02:01:37;;;;;;;2.33;1.20;;;;;;;11.20;93.78;101034.09;7710122;23;20717;-88
2022/07/28 02:04:42;;;;;;;3.38;1.45;;;;;;;11.18;94.15;101027.38;7737622;23;20028;-88
2022/07/28 02:07:46;;;;;;;2.55;1.10;;;;;;;11.20;93.29;101028.91;7712808;23;20020;-88
2022/07/28 02:14:23;;;;;;;2.60;1.08;;;;;;;11.15;93.23;101017.22;7739693;23;20020;-88
2022/07/28 02:17:28;;;;;;;3.22;0.93;;;;;;;11.08;93.36;101011.66;7736745;23;20439;-89
2022/07/28 02:20:31;;;;;;;3.47;1.10;;;;;;;11.05;94.08;101016.22;7735683;23;20545;-88
2022/07/28 02:23:34;;;;;;;2.20;0.98;;;;;;;10.97;92.94;101009.84;7738110;23;20020;-88
2022/07/28 02:26:41;;;;;;;2.92;1.42;;;;;;;10.92;93.31;101006.75;7712442;23;20059;-88
2022/07/28 02:30:00;;;;;;;2.83;1.00;;;;;;;10.84;92.35;101018.63;7737306;23;20020;-88
2022/07/28 02:33:11;;;;;;;2.20;1.00;;;;;;;10.75;93.31;101009.75;7711743;23;20028;-88
2022/07/28 02:36:26;;;;;;;4.00;1.10;;;;;;;10.71;92.86;101014.34;7685195;23;20462;-88
2022/07/28 02:39:45;;;;;;;3.30;1.10;;;;;;;10.65;93.07;101024.28;7738774;23;20016;-88
2022/07/28 02:43:06;;;;;;;2.28;1.20;;;;;;;10.57;94.60;101019.66;7738399;23;20016;-88
2022/07/28 02:46:11;;;;;;;5.05;1.10;;;;;;;10.53;95.08;101026.84;7738220;23;20031;-88
2022/07/28 02:49:20;;;;;;;6.10;1.48;;;;;;;10.52;95.45;101021.75;7686160;23;20039;-88
2022/07/28 02:52:24;;;;;;;11.10;2.03;;;;;;;10.50;95.11;101023.63;7739138;23;20074;-88
2022/07/28 02:55:27;;;;;;;4.78;1.50;;;;;;;10.48;95.60;101028.91;7739643;23;20073;-88
2022/07/28 02:58:30;;;;;;;5.18;1.63;;;;;;;10.46;96.00;101024.75;7711726;23;20323;-88
2022/07/28 03:01:32;;;;;;;3.13;1.30;;;;;;;10.43;96.81;101023.22;7739302;23;20016;-88
2022/07/28 03:07:57;;;;;;;;;;;;;;;10.43;96.41;101035.34;7712092;23;20019;-88
2022/07/28 03:11:11;;;;;;;2.60;1.10;;;;;;;10.46;95.95;101035.09;7738761;23;20227;-88
2022/07/28 03:14:13;;;;;;;3.10;1.05;;;;;;;10.45;96.12;101029.09;7736590;23;20035;-88
2022/07/28 03:17:16;;;;;;;1.88;0.90;;;;;;;10.45;95.88;101036.88;7710512;23;20024;-88
2022/07/28 03:20:18;;;;;;;2.25;0.93;;;;;;;10.48;95.95;101039.28;7738550;23;20079;-88
2022/07/28 03:23:51;;;;;;;4.03;1.20;;;;;;;10.53;95.41;101038.91;7737986;23;20513;-88
2022/07/28 03:27:34;;;;;;;2.90;1.25;;;;;;;10.55;96.03;101037.88;7621446;23;20041;-88
2022/07/28 03:30:41;;;;;;;2.85;1.20;;;;;;;10.54;95.89;101044.00;7621184;23;20444;-88
2022/07/28 03:33:43;;;;;;;2.42;1.23;;;;;;;10.68;95.34;101042.19;7622050;23;20026;-88
2022/07/28 03:36:52;;;;;;;4.75;1.08;;;;;;;10.78;94.80;101038.84;7622237;23;20065;-88
2022/07/28 03:39:57;;;;;;;6.20;1.60;;;;;;;10.86;94.71;101033.13;7622177;23;20045;-88
2022/07/28 03:43:05;;;;;;;5.43;1.30;;;;;;;10.89;93.80;101045.84;7621188;23;20039;-88
2022/07/28 03:46:07;;;;;;;3.35;0.93;;;;;;;10.92;93.84;101042.19;7622435;23;20029;-88
2022/07/28 03:49:14;;;;;;;2.15;0.80;;;;;;;10.94;93.72;101041.16;7621927;23;20061;-88
2022/07/28 03:52:16;;;;;;;3.15;1.10;;;;;;;10.95;93.82;101055.75;7597453;23;20031;-88
2022/07/28 03:55:18;;;;;;;2.78;1.02;;;;;;;10.97;94.03;101061.66;7620965;23;20375;-88
2022/07/28 03:58:23;;;;;;;3.53;0.90;;;;;;;10.95;93.94;101057.50;7622236;23;20028;-88
2022/07/28 04:01:29;;;;;;;2.70;1.08;;;;;;;10.99;94.10;101057.19;7621635;23;20030;-88
2022/07/28 04:04:32;;;;;;;0.90;0.85;;;;;;;11.02;94.26;101055.31;7735052;23;20074;-88
2022/07/28 04:07:33;;;;;;;2.58;0.90;;;;;;;11.07;93.39;101061.00;7710900;23;20362;-88
2022/07/28 04:10:35;;;;;;;4.35;1.00;;;;;;;11.09;93.32;101056.53;7738491;23;20455;-88
2022/07/28 04:13:37;;;;;;;2.30;1.02;;;;;;;11.09;93.16;101054.75;7737605;23;20224;-88
2022/07/28 04:16:40;;;;;;;4.43;1.00;;;;;;;11.12;93.19;101054.53;7711736;23;20023;-88
2022/07/28 04:19:41;;;;;;;3.88;1.33;;;;;;;11.16;92.81;101055.16;7710729;23;20282;-88
2022/07/28 04:22:44;;;;;;;3.90;1.00;;;;;;;11.23;92.81;101051.19;7711430;23;20343;-88
2022/07/28 04:25:46;;;;;;;3.22;1.10;;;;;;;11.34;92.24;101047.78;7737692;23;20031;-88
2022/07/28 04:28:48;;;;;;;3.15;0.90;;;;;;;11.43;92.30;101049.72;7736817;23;20023;-88
2022/07/28 04:31:50;;;;;;;2.28;0.98;;;;;;;11.56;91.66;101060.00;7685465;23;20023;-88
2022/07/28 04:34:51;;;;;;;1.13;0.80;;;;;;;11.68;91.08;101058.25;7737206;23;20016;-88
2022/07/28 04:37:57;;;;;;;2.97;1.10;;;;;;;11.76;90.00;101051.53;7710868;23;20458;-88
2022/07/28 04:40:59;;;;;;;1.55;1.10;;;;;;;11.88;90.09;101061.97;7737641;23;20027;-88
2022/07/28 04:44:00;;;;;;;3.25;1.10;;;;;;;11.92;91.03;101058.19;7710748;23;20023;-88
2022/07/28 04:47:03;;;;;;;3.17;0.88;;;;;;;11.95;90.37;101066.56;7710206;23;20020;-88
2022/07/28 04:50:08;;;;;;;4.18;1.15;;;;;;;11.96;90.54;101057.84;7737213;23;20366;-88
2022/07/28 04:53:11;;;;;;;3.65;1.10;;;;;;;12.02;90.41;101056.53;7737438;23;20032;-88
2022/07/28 04:56:13;;;;;;;4.45;0.90;;;;;;;12.08;90.32;101050.88;7659740;23;20035;-88
2022/07/28 04:59:15;;;;;;;1.98;0.90;;;;;;;12.17;89.90;101050.16;7737388;23;20024;-88
2022/07/28 05:02:19;;;;;;;1.25;1.00;;;;;;;12.29;89.55;101045.78;7736392;23;20031;-88
2022/07/28 05:05:20;;;;;;;4.53;1.20;;;;;;;12.40;90.33;101045.78;7735178;23;20024;-88
2022/07/28 05:08:23;;;;;;;3.78;0.90;;;;;;;12.54;89.28;101046.47;7737630;23;20446;-89
2022/07/28 05:11:26;;;;;;;3.95;1.42;;;;;;;12.63;89.30;101049.16;7711202;23;20087;-88
2022/07/28 05:14:28;;;;;;;2.50;0.90;;;;;;;12.70;87.97;101045.13;7736922;23;20020;-89
2022/07/28 05:17:30;;;;;;;3.88;1.25;;;;;;;12.81;88.04;101056.44;7736822;23;20023;-88
2022/07/28 05:20:32;;;;;;;5.95;1.05;;;;;;;12.89;88.14;101052.31;7739038;23;20026;-88
2022/07/28 05:23:34;;;;;;;4.93;1.33;;;;;;;12.96;88.39;101060.41;7740062;23;20024;-88
2022/07/28 05:26:36;;;;;;;3.55;1.40;;;;;;;13.02;86.65;101062.53;7740292;23;20024;-88
2022/07/28 05:29:40;;;;;;;4.82;1.35;;;;;;;13.02;86.11;101059.94;7740048;23;20385;-88
2022/07/28 05:32:49;;;;;;;5.82;1.30;;;;;;;12.98;87.08;101057.69;7739997;23;20094;-88
2022/07/28 05:35:53;;;;;;;5.40;1.17;;;;;;;12.98;88.75;101058.50;7713264;23;20439;-88
2022/07/28 05:38:55;;;;;;;5.78;1.63;;;;;;;12.98;88.62;101058.50;7663267;23;20039;-88
2022/07/28 05:42:00;;;;;;;2.78;1.20;;;;;;;12.92;88.26;101059.84;7713678;23;20020;-88
2022/07/28 05:45:07;;;;;;;2.47;1.48;;;;;;;12.96;88.54;101065.59;7740213;23;20477;-88
2022/07/28 05:48:18;;;;;;;2.88;1.00;;;;;;;13.00;87.72;101063.59;7712468;23;20158;-88
2022/07/28 05:51:20;;;;;;;3.85;1.55;;;;;;;13.02;88.47;101079.88;7739789;23;20052;-88
2022/07/28 05:54:22;;;;;;;2.92;1.30;;;;;;;13.00;88.26;101081.78;7739794;23;20020;-88
2022/07/28 05:57:24;;;;;;;3.28;1.55;;;;;;;12.99;89.29;101077.53;7712694;23;20094;-88
2022/07/28 06:00:27;;;;;;;2.75;1.20;;;;;;;12.96;90.24;101081.19;7712121;23;20153;-88
2022/07/28 06:03:31;;;;;;;4.43;1.20;;;;;;;12.90;90.25;101085.13;7712634;23;20482;-88
2022/07/28 06:06:36;;;;;;;3.50;1.20;;;;;;;12.82;89.26;101087.50;7738412;23;20020;-88
2022/07/28 06:09:38;;;;;;;3.13;1.83;;;;;;;12.79;90.74;101081.72;7712890;23;20024;-88
2022/07/28 06:12:49;;;;;;;7.07;1.80;;;;;;;12.76;90.92;101079.38;7712761;23;20024;-88
2022/07/28 06:15:51;;;;;;;2.58;1.60;;;;;;;12.77;90.39;101079.25;7738623;23;20095;-88
2022/07/28 06:18:53;;;;;;;4.22;1.75;;;;;;;12.77;91.37;101088.78;7738751;23;20018;-88
2022/07/28 06:21:55;;;;;;;3.05;1.52;;;;;;;12.78;91.19;101088.69;7739118;23;20027;-88
2022/07/28 06:24:57;;;;;;;6.43;1.83;;;;;;;12.78;91.08;101086.09;7739000;23;20438;-88
2022/07/28 06:28:01;;;;;;;5.85;1.48;;;;;;;12.80;91.39;101093.78;7740118;23;20024;-88
2022/07/28 06:31:03;;;;;;;4.25;1.25;;;;;;;12.84;90.29;101092.56;7738917;23;20426;-88
2022/07/28 06:34:06;;;;;;;4.50;1.33;;;;;;;12.88;90.25;101086.19;7738557;23;20024;-88
2022/07/28 06:37:07;;;;;;;4.47;1.75;;;;;;;12.93;91.42;101097.03;7687717;23;20030;-88
2022/07/28 06:40:10;;;;;;;2.42;1.10;;;;;;;12.97;90.87;101095.00;7739103;23;20020;-88
2022/07/28 06:43:13;;;;;;;2.75;1.38;;;;;;;13.02;90.51;101083.31;7737274;23;20433;-88
2022/07/28 06:46:18;;;;;;;3.45;1.30;;;;;;;13.10;91.34;101078.31;7711919;23;20028;-88
2022/07/28 06:49:20;;;;;;;5.85;1.50;;;;;;;13.16;89.05;101079.59;7737848;23;20016;-88
2022/07/28 06:52:22;;;;;;;2.97;0.98;;;;;;;13.24;89.47;101078.97;7739047;23;20554;-88
2022/07/28 06:55:24;;;;;;;7.30;1.30;;;;;;;13.31;87.56;101077.53;7738906;23;20031;-88
2022/07/28 06:58:35;;;;;;;5.22;1.35;;;;;;;13.40;87.54;101075.97;7738628;23;20024;-88
2022/07/28 07:01:37;;;;;;;3.05;1.40;;;;;;;13.45;88.19;101077.25;7738507;23;20030;-88
2022/07/28 07:04:38;;;;;;;3.75;1.63;;;;;;;13.50;89.61;101082.91;7711461;23;20058;-88
2022/07/28 07:07:41;;;;;;;3.42;1.73;;;;;;;13.60;87.94;101079.53;7711385;23;20027;-88
2022/07/28 07:10:44;;;;;;;5.47;1.88;;;;;;;13.65;88.32;101079.97;7738430;23;20024;-88
2022/07/28 07:13:46;;;;;;;4.28;1.58;;;;;;;13.77;87.02;101081.56;7738889;23;20027;-88
2022/07/28 07:16:48;;;;;;;6.03;1.63;;;;;;;13.87;87.55;101079.84;7738072;23;20147;-88
2022/07/28 07:19:50;;;;;;;5.25;1.67;;;;;;;13.96;88.44;101078.22;7736529;23;20064;-88
2022/07/28 07:22:52;;;;;;;5.93;1.65;;;;;;;14.05;87.20;101076.63;7738548;23;20020;-88
2022/07/28 07:25:54;;;;;;;5.55;1.40;;;;;;;14.16;84.67;101069.56;7737550;23;20339;-88
2022/07/28 07:28:56;;;;;;;2.80;0.95;;;;;;;14.24;85.28;101073.31;7739278;23;20351;-88
2022/07/28 07:31:59;;;;;;;4.93;1.17;;;;;;;14.34;83.98;101076.75;7738279;23;20031;-88
2022/07/28 07:35:01;;;;;;;5.00;1.02;;;;;;;14.41;81.89;101076.09;7711969;23;20497;-88
2022/07/28 07:38:03;;;;;;;2.58;0.90;;;;;;;14.51;80.51;101080.47;7738109;23;20109;-88
2022/07/28 07:41:05;;;;;;;3.55;1.05;;;;;;;14.62;79.99;101077.81;7738373;23;20023;-88
2022/07/28 07:44:08;;;;;;;3.92;0.98;;;;;;;14.78;78.70;101082.50;7737718;23;20016;-88
2022/07/28 07:47:10;;;;;;;1.63;0.80;;;;;;;14.85;79.32;101079.22;7738516;23;20031;-88
2022/07/28 07:50:12;;;;;;;3.22;1.10;;;;;;;14.95;78.39;101078.41;7735095;23;20024;-88
2022/07/28 07:53:14;;;;;;;4.10;1.02;;;;;;;15.04;77.77;101077.59;7736016;23;20020;-89
2022/07/28 07:56:17;;;;;;;5.78;1.05;;;;;;;15.24;74.91;101073.22;7710547;23;20051;-88
2022/07/28 07:59:19;;;;;;;4.30;0.90;;;;;;;15.37;73.59;101070.31;7711116;23;20083;-88
2022/07/28 08:02:20;;;;;;;2.03;0.95;;;;;;;15.55;73.59;101073.84;7709490;23;20024;-88
2022/07/28 08:05:23;;;;;;;4.15;0.98;;;;;;;15.75;72.21;101074.69;7738171;23;20031;-88
2022/07/28 08:08:36;;;;;;;5.63;1.13;;;;;;;15.87;72.49;101076.13;7737813;23;20094;-88
2022/07/28 08:11:46;;;;;;;5.15;2.10;;;;;;;15.93;71.78;101070.34;7736614;23;20020;-88
2022/07/28 08:14:48;;;;;;;2.67;0.80;;;;;;;15.99;70.08;101071.56;7737687;23;20016;-88
2022/07/28 08:17:50;;;;;;;3.10;0.80;;;;;;;16.09;69.36;101071.53;7735023;23;20073;-88
2022/07/28 08:20:52;;;;;;;2.95;0.90;;;;;;;16.20;68.96;101060.06;7736137;23;20028;-88
2022/07/28 08:23:54;;;;;;;2.97;1.10;;;;;;;16.29;67.95;101062.63;7735488;23;20020;-89
2022/07/28 08:26:56;;;;;;;4.25;1.02;;;;;;;16.38;65.54;101060.97;7735012;23;20425;-88
2022/07/28 08:29:58;;;;;;;2.20;0.80;;;;;;;16.49;65.57;101060.75;7734293;23;20062;-89
2022/07/28 08:33:01;;;;;;;3.45;0.88;;;;;;;16.69;63.69;101050.97;7735935;23;20024;-89
2022/07/28 08:36:03;;;;;;;3.70;0.90;;;;;;;16.78;62.71;101055.38;7709899;23;20099;-88
2022/07/28 08:39:05;;;;;;;2.67;1.10;;;;;;;16.88;61.57;101059.72;7709124;23;20020;-88
2022/07/28 08:42:49;;;;;;;7.03;2.33;;;;;;;16.85;62.17;101057.41;7737324;23;20020;-88
2022/07/28 08:45:51;;;;;;;2.63;0.98;;;;;;;16.86;62.76;101052.00;7595192;23;20033;-88
2022/07/28 08:49:08;;;;;;;4.72;1.10;;;;;;;16.94;62.26;101059.09;7575671;23;20635;-88
2022/07/28 08:52:11;;;;;;;1.52;0.70;;;;;;;17.08;61.71;101053.34;7621870;23;20025;-89
2022/07/28 08:55:15;;;;;;;2.90;1.23;;;;;;;17.21;60.46;101050.34;7620471;23;20036;-89
2022/07/28 08:58:21;;;;;;;2.20;0.60;;;;;;;17.30;59.04;101046.81;7622047;23;20033;-89
2022/07/28 09:01:23;;;;;;;4.00;0.93;;;;;;;17.34;58.97;101048.16;7619098;23;20100;-89
2022/07/28 09:04:40;;;;;;;3.58;0.90;;;;;;;17.48;58.76;101051.19;7618499;23;20468;-89
2022/07/28 09:07:44;;;;;;;3.90;0.93;;;;;;;17.55;56.56;101050.44;7593736;23;20389;-89
2022/07/28 09:10:47;;;;;;;2.10;0.75;;;;;;;17.63;56.29;101047.03;7618088;23;20407;-89
2022/07/28 09:13:50;;;;;;;1.30;0.60;;;;;;;17.82;55.91;101046.84;7619209;23;20092;-89
2022/07/28 09:16:57;;;;;;;2.03;1.00;;;;;;;17.83;55.03;101043.25;7620161;23;20025;-89
2022/07/28 09:19:59;;;;;;;3.40;0.93;;;;;;;17.83;55.18;101038.00;7572574;23;20025;-89
2022/07/28 09:23:04;;;;;;;1.98;0.70;;;;;;;17.91;55.78;101036.41;7693539;23;20024;-88
2022/07/28 09:26:26;;;;;;;2.65;0.85;;;;;;;17.95;55.06;101033.31;7737204;23;20020;-89
2022/07/28 09:29:28;;;;;;;1.60;0.70;;;;;;;18.08;54.93;101032.88;7738447;23;20027;-89
2022/07/28 09:32:32;;;;;;;4.22;1.58;;;;;;;18.24;54.17;101043.44;7736249;23;20016;-89
2022/07/28 09:35:42;;;;;;;3.20;0.77;;;;;;;18.39;54.16;101040.22;7739098;23;20031;-89
2022/07/28 09:38:43;;;;;;;5.33;0.90;;;;;;;18.56;52.69;101039.28;7737307;23;20016;-89
2022/07/28 09:41:59;;;;;;;3.38;0.93;;;;;;;18.81;52.32;101037.53;7737695;23;20031;-90
2022/07/28 09:45:07;;;;;;;1.65;0.80;;;;;;;19.00;53.31;101040.81;7738923;23;20019;-90
2022/07/28 09:48:25;;;;;;;4.20;1.00;;;;;;;19.14;51.79;101029.66;7714195;23;20521;-91
2022/07/28 09:51:30;;;;;;;3.63;0.80;;;;;;;19.21;50.71;101025.41;7737376;23;20043;-92
2022/07/28 09:54:32;;;;;;;4.00;1.30;;;;;;;19.36;50.96;101026.38;7738679;23;20016;-94
2022/07/28 09:57:41;;;;;;;2.92;0.90;;;;;;;19.58;50.21;101031.91;7736507;23;20335;-93
2022/07/28 10:00:46;;;;;;;3.45;0.98;;;;;;;19.73;49.81;101032.06;7735993;23;20367;-94
2022/07/28 10:03:51;;;;;;;3.00;0.90;;;;;;;19.79;49.59;101028.75;7709197;23;20454;-93
2022/07/28 10:07:04;;;;;;;5.50;0.85;;;;;;;19.79;48.91;101026.13;7739591;23;20308;-93
2022/07/28 10:10:07;;;;;;;4.20;1.00;;;;;;;19.83;49.38;101018.75;7712658;23;20510;-93
2022/07/28 10:13:09;;;;;;;3.08;1.08;;;;;;;19.93;48.14;101019.38;7740062;23;20020;-93
2022/07/28 10:16:11;;;;;;;3.25;1.50;;;;;;;19.92;48.81;101026.41;7740311;23;20491;-93
2022/07/28 10:19:14;;;;;;;5.25;1.38;;;;;;;19.90;48.00;101022.31;7742023;23;20135;-93
2022/07/28 10:22:18;;;;;;;3.47;1.00;;;;;;;19.85;49.57;101020.22;7713538;23;20111;-94
2022/07/28 10:25:21;;;;;;;3.28;1.60;;;;;;;19.92;48.65;101013.25;7741474;23;20023;-93
2022/07/28 10:28:24;;;;;;;2.55;1.17;;;;;;;19.98;48.27;101012.59;7738977;23;20020;-93
2022/07/28 10:32:03;;;;;;;4.82;3.10;;;;;;;20.09;47.92;101008.75;7740417;23;20027;-93
2022/07/28 10:35:09;;;;;;;3.10;1.00;;;;;;;20.11;47.24;101005.97;7588146;23;20239;-93
2022/07/28 10:38:12;;;;;;;3.50;0.93;;;;;;;20.08;47.51;100999.25;7588826;23;20112;-93
2022/07/28 10:41:17;;;;;;;2.97;0.93;;;;;;;20.19;48.69;100998.03;7588193;23;20117;-93
2022/07/28 10:44:20;;;;;;;3.83;1.00;;;;;;;20.31;48.14;100980.88;7589664;23;20100;-92
2022/07/28 10:47:22;;;;;;;2.25;1.05;;;;;;;20.51;48.16;100988.31;7564110;23;20030;-93
2022/07/28 10:50:39;;;;;;;3.80;1.10;;;;;;;20.75;46.44;100984.72;7589057;23;20022;-93
2022/07/28 10:53:52;;;;;;;3.78;0.95;;;;;;;20.90;46.62;100984.78;7589490;23;20026;-94
2022/07/28 10:56:57;;;;;;;2.20;1.10;;;;;;;21.12;45.27;100976.00;7589137;23;20173;-94
2022/07/28 11:00:08;;;;;;;6.28;0.90;;;;;;;21.25;45.14;100981.47;7564254;23;20026;-94
2022/07/28 11:03:45;;;;;;;2.40;1.23;;;;;;;21.18;44.16;100983.19;7564054;23;20124;-87
2022/07/28 11:06:48;;;;;;;3.10;1.20;;;;;;;21.18;44.22;100970.00;7588183;23;20124;-88
2022/07/28 11:09:52;;;;;;;2.88;1.00;;;;;;;21.32;44.68;100968.41;7635616;23;20035;-88
2022/07/28 11:12:57;;;;;;;4.85;1.20;;;;;;;21.53;44.76;100974.78;7741336;23;20012;-88
2022/07/28 11:16:14;;;;;;;2.88;1.10;;;;;;;21.67;45.12;100971.34;7713658;23;20097;-89
2022/07/28 11:19:17;;;;;;;9.05;2.20;;;;;;;21.79;43.08;100971.66;7737967;23;20470;-88
2022/07/28 11:22:39;;;;;;;3.30;1.00;;;;;;;21.77;44.70;100963.97;7742425;23;20095;-88
2022/07/28 11:25:41;;;;;;;3.80;1.00;;;;;;;21.84;43.36;100967.50;7688867;23;20346;-88
2022/07/28 11:29:13;;;;;;;5.38;0.98;;;;;;;22.14;43.21;100955.06;7739620;23;20106;-88
2022/07/28 11:32:15;;;;;;;1.52;0.90;;;;;;;22.39;42.08;100948.66;7741063;23;20026;-88
2022/07/28 11:35:18;;;;;;;2.75;0.90;;;;;;;22.49;40.66;100951.78;7741423;23;20020;-89
2022/07/28 11:38:21;;;;;;;1.80;0.95;;;;;;;22.46;39.39;100947.69;7739724;23;20016;-88
2022/07/28 11:41:29;;;;;;;3.20;1.98;;;;;;;22.50;41.25;100941.03;7740522;23;20351;-89
2022/07/28 11:44:32;;;;;;;2.90;1.20;;;;;;;22.66;41.33;100939.13;7713989;23;20020;-89
2022/07/28 11:47:33;;;;;;;3.38;1.13;;;;;;;22.64;41.05;100931.41;7738550;23;20359;-90
2022/07/28 11:50:36;;;;;;;3.63;1.55;;;;;;;22.80;40.72;100923.19;7739316;23;20020;-89
2022/07/28 11:53:48;;;;;;;4.22;1.58;;;;;;;23.04;41.09;100930.91;7740265;23;20023;-87
2022/07/28 11:56:57;;;;;;;2.30;1.02;;;;;;;23.31;38.93;100924.78;7739933;23;20927;-87
2022/07/28 12:00:01;;;;;;;5.82;1.00;;;;;;;23.50;38.81;100933.00;7740657;23;20043;-89
2022/07/28 12:03:06;;;;;;;4.30;1.13;;;;;;;23.72;38.56;100926.56;7741884;23;20110;-88
2022/07/28 12:06:09;;;;;;;2.80;1.00;;;;;;;23.98;37.07;100927.72;7740423;23;20232;-88
2022/07/28 12:09:17;;;;;;;3.00;0.90;;;;;;;24.16;35.54;100920.00;7740280;23;20015;-88
2022/07/28 12:12:26;;;;;;;3.65;0.90;;;;;;;24.21;35.81;100925.50;7738517;23;20024;-88
2022/07/28 12:15:29;;;;;;;2.38;1.00;;;;;;;24.23;35.34;100920.03;7740332;23;20410;-88
2022/07/28 12:18:31;;;;;;;4.72;1.10;;;;;;;24.40;36.71;100928.41;7740464;23;20023;-88
2022/07/28 12:21:40;;;;;;;3.58;0.88;;;;;;;24.74;36.56;100930.03;7714465;23;20020;-87
2022/07/28 12:24:56;;;;;;;5.07;1.30;;;;;;;24.80;35.33;100925.78;7713179;23;20082;-88
2022/07/28 12:28:12;;;;;;;3.08;1.58;;;;;;;24.93;35.53;100923.09;7714633;23;20031;-88
2022/07/28 12:31:14;;;;;;;3.40;1.33;;;;;;;25.30;36.20;100918.16;7740685;23;20099;-88
2022/07/28 12:34:17;;;;;;;1.98;1.08;;;;;;;25.69;35.85;100921.66;7713658;23;20024;-88
2022/07/28 12:37:22;;;;;;;2.75;1.17;;;;;;;25.98;34.18;100915.81;7740063;23;20027;-88
2022/07/28 12:40:28;;;;;;;4.65;1.30;;;;;;;26.08;34.18;100910.03;7739930;23;20026;-88
2022/07/28 12:43:30;;;;;;;2.53;1.15;;;;;;;26.06;33.52;100909.47;7712764;23;20664;-88
2022/07/28 12:46:32;;;;;;;2.60;1.17;;;;;;;25.97;33.38;100897.47;7739421;23;20047;-88
2022/07/28 12:49:35;;;;;;;3.55;1.30;;;;;;;26.18;33.38;100904.25;7740437;23;20510;-88
2022/07/28 12:52:37;;;;;;;3.15;1.27;;;;;;;26.40;34.69;100910.03;7739750;23;20389;-88
2022/07/28 12:55:42;;;;;;;3.30;1.15;;;;;;;26.68;33.20;100906.13;7741087;23;20338;-88
2022/07/28 12:58:44;;;;;;;6.38;1.23;;;;;;;26.76;32.61;100904.03;7701671;23;20024;-89
2022/07/28 13:01:53;;;;;;;2.85;1.05;;;;;;;27.02;32.47;100899.47;7713827;23;20450;-88
2022/07/28 13:04:55;;;;;;;2.03;1.23;;;;;;;27.29;32.80;100900.00;7739907;23;20054;-89
2022/07/28 13:08:03;;;;;;;5.28;0.95;;;;;;;27.46;31.87;100901.03;7713176;23;20106;-89
2022/07/28 13:11:06;;;;;;;16.30;2.67;;;;;;;27.54;30.61;100905.22;7740710;23;20013;-89
2022/07/28 13:14:44;;;;;;;6.50;1.10;;;;;;;27.39;29.90;100891.53;7740987;23;20020;-89
2022/07/28 13:17:49;;;;;;;2.95;1.23;;;;;;;27.16;30.86;100892.97;7740695;23;20028;-89
2022/07/28 13:20:52;;;;;;;4.32;0.98;;;;;;;27.00;31.91;100867.78;7739898;23;20630;-89
2022/07/28 13:23:55;;;;;;;2.08;0.95;;;;;;;27.19;31.48;100887.25;7739619;23;20142;-89
2022/07/28 13:26:57;;;;;;;5.50;1.25;;;;;;;27.45;29.64;100886.13;7711506;23;20111;-88
2022/07/28 13:29:59;;;;;;;2.88;1.05;;;;;;;27.39;30.89;100891.53;7739721;23;20035;-89
2022/07/28 13:33:01;;;;;;;2.42;0.90;;;;;;;27.56;31.37;100886.41;7712379;23;20027;-89
2022/07/28 13:36:04;;;;;;;2.13;0.90;;;;;;;27.79;30.64;100883.81;7739805;23;20020;-89
2022/07/28 13:39:09;;;;;;;3.28;1.15;;;;;;;27.97;29.70;100874.97;7740023;23;20044;-89
2022/07/28 13:42:11;;;;;;;2.88;1.10;;;;;;;27.96;29.29;100876.03;7742311;23;20016;-89
2022/07/28 13:45:15;;;;;;;2.75;1.30;;;;;;;28.25;29.66;100869.03;7742244;23;20431;-89
2022/07/28 13:48:22;;;;;;;4.00;1.00;;;;;;;28.41;27.59;100864.84;7741762;23;20035;-89
2022/07/28 13:51:27;;;;;;;3.70;1.02;;;;;;;28.07;29.17;100864.59;7742631;23;20403;-89
2022/07/28 13:54:29;;;;;;;1.67;1.13;;;;;;;28.00;29.10;100866.56;7741252;23;20047;-91
2022/07/28 13:57:32;;;;;;;3.42;0.90;;;;;;;28.19;31.25;100858.47;7742777;23;20357;-91
2022/07/28 14:00:36;;;;;;;3.83;1.27;;;;;;;28.51;28.93;100851.00;7715851;23;20427;-92
2022/07/28 14:03:39;;;;;;;3.58;1.40;;;;;;;28.84;29.78;100850.38;7715033;23;20031;-93
2022/07/28 14:06:56;;;;;;;3.58;1.30;;;;;;;28.99;28.94;100850.72;7741331;23;20016;-92
2022/07/28 14:09:58;;;;;;;3.65;1.23;;;;;;;28.97;29.29;100852.00;7742660;23;20019;-93
2022/07/28 14:13:00;;;;;;;3.00;1.05;;;;;;;28.42;28.84;100850.50;7742792;23;20028;-95
2022/07/28 14:16:04;;;;;;;2.55;1.27;;;;;;;27.89;29.19;100846.84;7715590;23;20026;-94
2022/07/28 14:19:16;;;;;;;3.15;1.45;;;;;;;27.32;28.80;100840.28;7741934;23;20016;-94
2022/07/28 14:22:37;;;;;;;2.13;0.98;;;;;;;26.94;31.26;100841.31;7742319;23;20024;-94
2022/07/28 14:25:39;;;;;;;2.05;1.05;;;;;;;27.32;30.79;100834.97;7741511;23;20027;-95
2022/07/28 14:28:50;;;;;;;2.28;0.80;;;;;;;28.10;29.66;100834.88;7715265;23;20336;-95
2022/07/28 14:31:54;;;;;;;3.72;1.30;;;;;;;28.42;29.64;100841.69;7715755;23;20022;-95